Time;durP1;ratioP1;P1;durP2;ratioP2;P2;SDS_P1;SDS_P2;PMS_P1;PMS_P2;Temp;Humidity;BMP_temperature;BMP_pressure;BME280_temperature;BME280_humidity;BME280_pressure;Samples;Min_cycle;Max_cycle;Signal;HPM_P1;HPM_P2
2021/05/30 00:02:11;;;;;;;;;0.00;0.00;;;;;18.03;42.65;101866.34;5054872;28;45381;-62
2021/05/30 00:04:37;;;;;;;;;0.00;0.00;;;;;18.00;43.50;101871.94;5053019;28;45259;-62
2021/05/30 00:07:04;;;;;;;;;0.00;0.00;;;;;17.98;42.98;101872.06;5041379;28;45449;-63
2021/05/30 00:09:29;;;;;;;;;0.00;0.00;;;;;17.90;44.26;101868.44;5022758;28;45460;-61
2021/05/30 00:11:55;;;;;;;;;0.00;0.00;;;;;17.83;43.56;101861.00;5041419;28;45264;-62
2021/05/30 00:14:20;;;;;;;;;0.00;0.00;;;;;17.82;43.84;101863.84;5040974;28;45341;-62
2021/05/30 00:16:48;;;;;;;;;0.00;0.00;;;;;17.80;43.37;101865.75;5040931;28;45453;-62
2021/05/30 00:19:14;;;;;;;;;0.00;0.00;;;;;17.78;43.59;101857.91;5040767;28;45449;-62
2021/05/30 00:21:39;;;;;;;;;0.00;0.00;;;;;17.77;44.02;101868.69;5040337;28;45551;-62
2021/05/30 00:24:06;;;;;;;;;0.00;0.00;;;;;17.72;44.52;101863.78;5041426;28;45310;-62
2021/05/30 00:26:31;;;;;;;;;0.00;0.00;;;;;17.69;43.63;101866.72;5040841;28;45508;-63
2021/05/30 00:28:57;;;;;;;;;0.00;0.00;;;;;17.68;44.29;101866.84;5040740;28;45294;-62
2021/05/30 00:31:22;;;;;;;;;0.00;0.00;;;;;17.64;44.41;101860.97;5041422;28;45509;-62
2021/05/30 00:33:48;;;;;;;;;0.00;0.00;;;;;17.63;45.28;101868.09;5041514;28;45546;-62
2021/05/30 00:36:13;;;;;;;;;0.00;0.00;;;;;17.62;44.71;101869.09;5041059;28;46380;-62
2021/05/30 00:38:39;;;;;;;;;0.00;0.00;;;;;17.61;45.67;101869.22;5040669;28;45377;-62
2021/05/30 00:41:04;;;;;;;;;0.00;0.00;;;;;17.58;45.12;101861.50;5041127;28;45256;-64
2021/05/30 00:43:29;;;;;;;;;0.00;0.00;;;;;17.52;46.09;101868.22;5022615;28;45644;-63
2021/05/30 00:45:55;;;;;;;;;0.00;0.00;;;;;17.50;45.62;101875.50;5040922;28;46291;-63
2021/05/30 00:48:20;;;;;;;;;0.00;0.00;;;;;17.43;45.75;101866.41;5039903;28;45420;-62
2021/05/30 00:50:46;;;;;;;;;0.00;0.00;;;;;17.38;45.57;101868.63;5040789;28;45360;-62
2021/05/30 00:53:11;;;;;;;;;0.00;0.00;;;;;17.33;45.98;101857.56;5056237;28;45450;-63
2021/05/30 00:55:37;;;;;;;;;0.00;0.00;;;;;17.26;47.43;101862.59;5060405;28;46349;-64
2021/05/30 00:58:03;;;;;;;;;0.00;0.00;;;;;17.25;47.58;101860.06;5060481;28;45492;-62
2021/05/30 01:00:29;;;;;;;;;0.00;0.00;;;;;17.20;46.33;101860.47;5060322;28;45516;-63
2021/05/30 01:02:54;;;;;;;;;0.00;0.00;;;;;17.19;46.75;101864.06;5049533;28;45656;-62
2021/05/30 01:05:20;;;;;;;;;0.00;0.00;;;;;17.15;48.45;101865.34;5051624;28;46576;-62
2021/05/30 01:07:47;;;;;;;;;0.00;0.00;;;;;17.12;47.23;101858.47;5040123;28;45320;-63
2021/05/30 01:10:22;;;;;;;;;0.00;0.00;;;;;17.13;47.92;101862.81;5040758;28;45290;-62
2021/05/30 01:12:48;;;;;;;;;0.00;0.00;;;;;17.09;47.75;101853.44;5039601;28;45444;-62
2021/05/30 01:15:15;;;;;;;;;0.00;0.00;;;;;17.05;47.87;101852.03;5039708;28;46349;-61
2021/05/30 01:17:41;;;;;;;;;0.00;0.00;;;;;17.00;48.30;101851.59;5040380;28;45367;-64
2021/05/30 01:20:14;;;;;;;;;0.00;0.00;;;;;16.96;48.24;101858.16;5040291;28;45676;-61
2021/05/30 01:22:41;;;;;;;;;0.00;0.00;;;;;16.91;48.53;101847.06;5040533;28;45369;-62
2021/05/30 01:25:07;;;;;;;;;0.00;0.00;;;;;16.89;49.48;101854.31;5039640;28;46316;-61
2021/05/30 01:27:33;;;;;;;;;0.00;0.00;;;;;16.86;48.61;101852.78;5039822;28;45454;-63
2021/05/30 01:29:58;;;;;;;;;0.00;0.00;;;;;16.85;48.14;101848.47;5040361;28;45366;-62
2021/05/30 01:32:23;;;;;;;;;0.00;0.00;;;;;16.86;48.87;101849.31;5040793;28;45198;-63
2021/05/30 01:34:49;;;;;;;;;0.00;0.00;;;;;16.87;49.08;101850.97;5039918;28;45375;-62
2021/05/30 01:37:14;;;;;;;;;0.00;0.00;;;;;16.86;48.98;101849.31;5040194;28;45263;-60
2021/05/30 01:39:39;;;;;;;;;0.00;0.00;;;;;16.85;49.64;101851.13;5040106;28;45466;-61
2021/05/30 01:42:06;;;;;;;;;0.00;0.00;;;;;16.80;50.25;101843.56;5040282;28;45481;-62
2021/05/30 01:44:31;;;;;;;;;0.00;0.00;;;;;16.69;50.14;101835.63;5039913;28;45292;-63
2021/05/30 01:46:57;;;;;;;;;0.00;0.00;;;;;16.72;51.12;101846.00;5039764;28;45327;-63
2021/05/30 01:49:22;;;;;;;;;0.00;0.00;;;;;16.73;50.83;101846.84;5039755;28;45440;-63
2021/05/30 01:51:47;;;;;;;;;0.00;0.00;;;;;16.71;49.79;101841.66;5044019;28;45401;-62
2021/05/30 01:54:15;;;;;;;;;0.00;0.00;;;;;16.67;50.46;101842.06;5059818;28;46624;-61
2021/05/30 01:56:56;;;;;;;;;0.00;0.00;;;;;16.59;50.13;101843.56;5060086;28;45397;-62
2021/05/30 01:59:26;;;;;;;;;0.00;0.00;;;;;16.58;50.39;101846.34;5060826;28;45303;-60
2021/05/30 02:01:54;;;;;;;;;0.00;0.00;;;;;16.54;50.46;101842.25;5060327;28;45385;-61
2021/05/30 02:04:22;;;;;;;;;0.00;0.00;;;;;16.51;50.79;101845.19;5055183;28;46063;-60
2021/05/30 02:06:48;;;;;;;;;0.00;0.00;;;;;16.53;50.57;101849.38;5041347;28;45377;-63
2021/05/30 02:09:16;;;;;;;;;0.00;0.00;;;;;16.45;51.17;101843.06;5043070;28;45698;-61
2021/05/30 02:11:41;;;;;;;;;0.00;0.00;;;;;16.39;51.31;101850.56;5025364;28;45592;-62
2021/05/30 02:14:07;;;;;;;;;0.00;0.00;;;;;16.38;51.34;101842.75;5042570;28;45755;-63
2021/05/30 02:16:36;;;;;;;;;0.00;0.00;;;;;16.34;51.38;101846.63;5042831;28;45513;-61
2021/05/30 02:19:02;;;;;;;;;0.00;0.00;;;;;16.29;52.98;101847.00;5024325;28;45300;-62
2021/05/30 02:21:40;;;;;;;;;0.00;0.00;;;;;16.25;51.87;101842.94;5043076;28;45240;-61
2021/05/30 02:24:06;;;;;;;;;0.00;0.00;;;;;16.25;52.21;101842.09;5043122;28;46348;-63
2021/05/30 02:26:31;;;;;;;;;0.00;0.00;;;;;16.23;51.52;101844.88;5042364;28;45370;-62
2021/05/30 02:28:57;;;;;;;;;0.00;0.00;;;;;16.23;52.94;101854.63;5042513;28;45457;-62
2021/05/30 02:31:22;;;;;;;;;0.00;0.00;;;;;16.19;52.47;101849.56;5025157;28;45570;-61
2021/05/30 02:33:47;;;;;;;;;0.00;0.00;;;;;16.16;52.02;101849.00;5041561;28;49901;-62
2021/05/30 02:36:13;;;;;;;;;0.00;0.00;;;;;16.11;52.97;101846.75;5042973;28;45303;-61
2021/05/30 02:38:38;;;;;;;;;0.00;0.00;;;;;16.12;51.87;101839.63;5042569;28;45342;-62
2021/05/30 02:41:03;;;;;;;;;0.00;0.00;;;;;16.12;53.31;101844.94;5042377;28;45333;-63
2021/05/30 02:43:29;;;;;;;;;0.00;0.00;;;;;16.06;52.95;101853.41;5042281;28;46358;-63
2021/05/30 02:45:54;;;;;;;;;0.00;0.00;;;;;16.02;52.55;101846.66;5042955;28;45329;-61
2021/05/30 02:48:19;;;;;;;;;0.00;0.00;;;;;15.99;52.82;101853.91;5043065;28;45457;-65
2021/05/30 02:50:57;;;;;;;;;0.00;0.00;;;;;15.96;52.95;101848.88;5043421;28;45215;-63
2021/05/30 02:53:23;;;;;;;;;0.00;0.00;;;;;15.95;53.32;101847.16;5059897;28;46415;-60
2021/05/30 02:55:48;;;;;;;;;0.75;0.00;;;;;15.97;53.11;101849.69;5062027;28;45410;-63
2021/05/30 02:58:13;;;;;;;;;0.00;0.00;;;;;15.93;53.01;101851.75;5044384;28;45299;-62
2021/05/30 03:00:39;;;;;;;;;0.00;0.00;;;;;15.90;53.36;101857.31;5062510;28;45467;-63
2021/05/30 03:03:04;;;;;;;;;0.00;0.00;;;;;15.89;53.03;101849.50;5043518;28;46095;-61
2021/05/30 03:05:29;;;;;;;;;0.00;0.00;;;;;15.87;53.36;101857.56;5052900;28;45348;-62
2021/05/30 03:07:55;;;;;;;;;0.00;0.00;;;;;15.84;53.21;101851.69;5042355;28;45497;-62
2021/05/30 03:10:20;;;;;;;;;0.00;0.00;;;;;15.82;53.29;101846.50;5041941;28;45311;-63
2021/05/30 03:12:45;;;;;;;;;0.00;0.00;;;;;15.83;53.14;101845.56;5042079;28;46499;-63
2021/05/30 03:15:11;;;;;;;;;0.00;0.00;;;;;15.81;53.65;101855.44;5042166;28;45587;-63
2021/05/30 03:17:36;;;;;;;;;0.00;0.00;;;;;15.74;53.52;101854.22;5042470;28;46495;-63
2021/05/30 03:20:03;;;;;;;;;0.00;0.00;;;;;15.70;54.27;101858.06;5042486;28;45426;-65
2021/05/30 03:22:28;;;;;;;;;0.00;0.00;;;;;15.67;54.44;101859.16;5050012;28;47378;-61
2021/05/30 03:24:53;;;;;;;;;0.00;0.00;;;;;15.62;54.29;101858.72;5041931;28;45304;-62
2021/05/30 03:27:19;;;;;;;;;0.00;0.00;;;;;15.63;54.32;101860.38;5037454;28;45264;-62
2021/05/30 03:29:44;;;;;;;;;0.00;0.00;;;;;15.64;54.72;101856.78;5042091;28;45304;-64
2021/05/30 03:32:09;;;;;;;;;0.00;0.00;;;;;15.65;53.94;101866.38;5041683;28;46566;-62
2021/05/30 03:34:35;;;;;;;;;0.00;0.00;;;;;15.65;53.74;101863.75;5038551;28;45343;-61
2021/05/30 03:37:00;;;;;;;;;0.00;0.00;;;;;15.62;54.54;101865.81;5046584;28;45373;-64
2021/05/30 03:39:28;;;;;;;;;0.00;0.00;;;;;15.60;55.38;101871.22;5024226;28;45550;-61
2021/05/30 03:41:55;;;;;;;;;0.00;0.00;;;;;15.59;54.50;101869.53;5041675;28;46443;-61
2021/05/30 03:44:20;;;;;;;;;0.00;0.00;;;;;15.54;55.28;101869.06;5041971;28;45505;-63
2021/05/30 03:46:47;;;;;;;;;0.00;0.00;;;;;15.49;54.84;101864.16;5041953;28;45557;-63
2021/05/30 03:49:12;;;;;;;;;0.00;0.00;;;;;15.46;54.86;101872.31;5042287;28;45586;-62
2021/05/30 03:51:38;;;;;;;;;0.00;0.00;;;;;15.45;55.82;101873.31;5044825;28;45268;-61
2021/05/30 03:54:04;;;;;;;;;0.00;0.00;;;;;15.45;54.70;101868.00;5061596;28;45458;-62
2021/05/30 03:56:29;;;;;;;;;0.00;0.00;;;;;15.49;55.09;101876.56;5061047;28;45522;-62
2021/05/30 03:58:56;;;;;;;;;0.00;0.00;;;;;15.47;55.11;101867.91;5061287;28;45312;-62
2021/05/30 04:01:22;;;;;;;;;0.00;0.00;;;;;15.47;55.37;101871.38;5043294;28;46424;-62
2021/05/30 04:03:47;;;;;;;;;0.00;0.00;;;;;15.44;55.20;101876.91;5049381;28;45355;-62
2021/05/30 04:06:13;;;;;;;;;0.00;0.00;;;;;15.45;55.67;101880.41;5039125;28;45427;-62
2021/05/30 04:08:38;;;;;;;;;0.00;0.00;;;;;15.40;55.63;101872.84;5041007;28;45362;-63
2021/05/30 04:11:04;;;;;;;;;0.00;0.00;;;;;15.40;54.90;101872.84;5041521;28;46361;-63
2021/05/30 04:13:29;;;;;;;;;0.00;0.00;;;;;15.42;55.23;101870.91;5040655;28;45386;-62
2021/05/30 04:15:54;;;;;;;;;0.00;0.00;;;;;15.42;55.23;101872.69;5041066;28;45375;-63
2021/05/30 04:18:23;;;;;;;;;0.00;0.00;;;;;15.37;55.80;101865.97;5041763;28;45316;-61
2021/05/30 04:20:50;;;;;;;;;0.00;0.00;;;;;15.38;55.29;101867.66;5040938;28;47011;-61
2021/05/30 04:23:16;;;;;;;;;0.00;0.00;;;;;15.33;55.31;101871.63;5040242;28;45407;-63
2021/05/30 04:25:42;;;;;;;;;0.00;0.00;;;;;15.31;56.10;101876.19;5041063;28;45244;-61
2021/05/30 04:28:07;;;;;;;;;0.00;0.00;;;;;15.28;55.81;101872.00;5041808;28;45237;-64
2021/05/30 04:30:33;;;;;;;;;0.00;0.00;;;;;15.33;56.05;101882.22;5041439;28;45454;-61
2021/05/30 04:32:58;;;;;;;;;0.00;0.00;;;;;15.32;55.85;101875.25;5040923;28;47623;-62
2021/05/30 04:35:23;;;;;;;;;0.00;0.00;;;;;15.32;57.11;101873.44;5041261;28;45359;-61
2021/05/30 04:37:49;;;;;;;;;0.00;0.00;;;;;15.34;55.97;101868.88;5023053;28;45577;-61
2021/05/30 04:40:14;;;;;;;;;0.00;0.00;;;;;15.34;56.53;101866.22;5040809;28;45811;-61
2021/05/30 04:42:39;;;;;;;;;0.00;0.00;;;;;15.34;56.08;101871.50;5040337;28;45430;-60
2021/05/30 04:45:06;;;;;;;;;0.00;0.00;;;;;15.36;55.66;101868.75;5041064;28;45520;-63
2021/05/30 04:47:32;;;;;;;;;0.00;0.00;;;;;15.33;56.95;101871.63;5040489;28;45323;-62
2021/05/30 04:49:57;;;;;;;;;0.00;0.00;;;;;15.29;57.31;101876.34;5040604;28;46201;-62
2021/05/30 04:52:23;;;;;;;;;0.00;0.00;;;;;15.31;56.19;101876.19;5049081;28;45408;-62
2021/05/30 04:54:48;;;;;;;;;0.00;0.00;;;;;15.33;56.12;101869.84;5061108;28;45310;-63
2021/05/30 04:57:13;;;;;;;;;0.00;0.00;;;;;15.35;56.23;101867.88;5060642;28;45603;-62
2021/05/30 04:59:39;;;;;;;;;0.00;0.00;;;;;15.41;56.30;101879.81;5060255;28;45334;-63
2021/05/30 05:02:04;;;;;;;;;0.00;0.00;;;;;15.42;56.34;101872.69;5055445;28;45400;-63
2021/05/30 05:04:30;;;;;;;;;0.00;0.00;;;;;15.38;56.16;101864.19;5052385;28;45382;-61
2021/05/30 05:06:55;;;;;;;;;0.00;0.00;;;;;15.42;56.33;101880.63;5041136;28;45705;-62
2021/05/30 05:09:20;;;;;;;;;0.00;0.00;;;;;15.44;56.40;101873.41;5040413;28;45172;-61
2021/05/30 05:11:46;;;;;;;;;0.00;0.00;;;;;15.46;56.09;101882.06;5040499;28;45322;-62
2021/05/30 05:14:11;;;;;;;;;0.00;0.00;;;;;15.47;56.05;101879.31;5040136;28;45342;-62
2021/05/30 05:16:37;;;;;;;;;0.25;0.25;;;;;15.48;56.93;101875.69;5040497;28;45271;-62
2021/05/30 05:19:03;;;;;;;;;0.00;0.00;;;;;15.44;57.32;101878.72;5040283;28;45501;-62
2021/05/30 05:21:28;;;;;;;;;0.00;0.00;;;;;15.45;56.47;101872.47;5040085;28;45409;-62
2021/05/30 05:23:56;;;;;;;;;0.00;0.00;;;;;15.36;57.32;101877.53;5038299;28;45451;-62
2021/05/30 05:26:22;;;;;;;;;0.00;0.00;;;;;15.34;56.71;101870.69;5038093;28;45422;-62
2021/05/30 05:28:48;;;;;;;;;0.00;0.00;;;;;15.35;56.87;101878.47;5038945;28;45705;-62
2021/05/30 05:31:13;;;;;;;;;0.00;0.00;;;;;15.34;57.27;101875.97;5039907;28;45383;-61
2021/05/30 05:33:39;;;;;;;;;0.25;0.25;;;;;15.35;57.09;101869.69;5041157;28;45402;-63
2021/05/30 05:36:05;;;;;;;;;0.00;0.00;;;;;15.37;57.25;101865.13;5044007;28;45184;-63
2021/05/30 05:38:30;;;;;;;;;3.00;3.00;;;;;15.39;56.43;101866.69;5043798;28;46703;-63
2021/05/30 05:40:56;;;;;;;;;0.00;0.00;;;;;15.42;56.52;101864.75;5043117;28;46982;-63
2021/05/30 05:43:21;;;;;;;;;0.00;0.00;;;;;15.47;56.91;101875.84;5043575;28;45325;-63
2021/05/30 05:45:47;;;;;;;;;0.00;0.00;;;;;15.52;56.22;101865.69;5043542;28;45640;-62
2021/05/30 05:48:17;;;;;;;;;0.00;0.00;;;;;15.64;55.64;101871.84;5042566;28;46030;-63
2021/05/30 05:50:47;;;;;;;;;0.00;0.00;;;;;15.70;55.73;101864.22;5043409;28;45318;-62
2021/05/30 05:53:13;;;;;;;;;0.00;0.00;;;;;15.77;55.56;101867.25;5058309;28;45473;-62
2021/05/30 05:55:39;;;;;;;;;0.00;0.00;;;;;15.86;55.93;101873.59;5061442;28;45468;-61
2021/05/30 05:58:05;;;;;;;;;0.25;0.25;;;;;15.93;55.39;101872.94;5060926;28;45806;-61
2021/05/30 06:00:31;;;;;;;;;0.00;0.00;;;;;15.99;54.93;101867.16;5063794;28;45389;-63
2021/05/30 06:02:57;;;;;;;;;0.00;0.00;;;;;16.14;54.93;101861.56;5052024;28;45533;-62
2021/05/30 06:05:24;;;;;;;;;0.00;0.00;;;;;16.61;54.61;101872.63;5054075;28;45585;-62
2021/05/30 06:07:52;;;;;;;;;0.00;0.00;;;;;17.14;53.59;101869.78;5024309;28;45480;-62
2021/05/30 06:10:24;;;;;;;;;0.00;0.00;;;;;17.67;51.74;101866.03;5043030;28;45275;-63
2021/05/30 06:12:52;;;;;;;;;0.00;0.00;;;;;18.11;50.45;101866.47;5043023;28;45344;-63
2021/05/30 06:15:21;;;;;;;;;0.00;0.00;;;;;18.64;50.51;101863.31;5041651;28;45360;-62
2021/05/30 06:18:00;;;;;;;;;0.00;0.00;;;;;19.20;49.92;101868.69;5041691;28;47210;-62
2021/05/30 06:20:26;;;;;;;;;0.00;0.00;;;;;19.76;49.03;101865.03;5043496;28;45438;-63
2021/05/30 06:22:56;;;;;;;;;0.00;0.00;;;;;20.30;47.51;101870.31;5043323;28;45464;-63
2021/05/30 06:25:21;;;;;;;;;0.00;0.00;;;;;20.69;45.63;101872.59;5042667;28;45383;-62
2021/05/30 06:27:47;;;;;;;;;0.00;0.00;;;;;20.92;45.62;101878.22;5042532;28;45502;-60
2021/05/30 06:30:14;;;;;;;;;0.00;0.00;;;;;21.03;44.44;101871.75;5043080;28;45287;-60
2021/05/30 06:32:39;;;;;;;;;0.00;0.00;;;;;21.23;43.85;101872.34;5042731;28;45174;-59
2021/05/30 06:35:06;;;;;;;;;0.00;0.00;;;;;21.43;43.82;101867.59;5043384;28;45325;-59
2021/05/30 06:37:31;;;;;;;;;0.00;0.00;;;;;21.65;42.80;101872.31;5042482;28;45314;-58
2021/05/30 06:39:56;;;;;;;;;0.00;0.00;;;;;21.65;43.12;101877.66;5042437;28;45378;-60
2021/05/30 06:42:22;;;;;;;;;0.00;0.00;;;;;21.88;42.29;101877.88;5042958;28;45236;-59
2021/05/30 06:44:47;;;;;;;;;0.00;0.00;;;;;22.03;41.54;101880.72;5042213;28;45282;-59
2021/05/30 06:47:13;;;;;;;;;0.00;0.00;;;;;22.05;41.57;101877.88;5042712;28;45376;-60
2021/05/30 06:49:38;;;;;;;;;0.00;0.00;;;;;22.10;41.68;101886.25;5031213;28;47245;-61
2021/05/30 06:52:04;;;;;;;;;0.00;0.00;;;;;22.22;41.05;101879.56;5046431;28;45845;-60
2021/05/30 06:54:29;;;;;;;;;0.00;0.00;;;;;22.28;41.02;101884.25;5046051;28;46529;-60
2021/05/30 06:56:55;;;;;;;;;0.00;0.00;;;;;22.36;40.92;101887.94;5042626;28;46930;-59
2021/05/30 06:59:20;;;;;;;;;0.00;0.00;;;;;22.46;40.76;101883.22;5046190;28;45735;-60
2021/05/30 07:01:45;;;;;;;;;0.00;0.00;;;;;22.50;40.39;101879.22;5059437;28;45814;-61
2021/05/30 07:04:11;;;;;;;;;0.00;0.00;;;;;22.54;40.30;101877.88;5045499;28;45489;-60
2021/05/30 07:06:36;;;;;;;;;0.00;0.00;;;;;22.64;39.71;101883.03;5053228;28;45668;-60
2021/05/30 07:09:05;;;;;;;;;0.00;0.00;;;;;22.77;39.83;101875.31;5050196;28;45611;-60
2021/05/30 07:11:30;;;;;;;;;0.00;0.00;;;;;22.91;39.78;101879.94;5046454;28;47314;-63
2021/05/30 07:13:56;;;;;;;;;0.00;0.00;;;;;23.24;39.39;101879.00;5044467;28;45472;-58
2021/05/30 07:16:22;;;;;;;;;0.00;0.00;;;;;23.55;38.91;101882.50;5039004;28;47250;-60
2021/05/30 07:18:47;;;;;;;;;0.00;0.00;;;;;23.75;37.65;101879.38;5041640;28;45284;-59
2021/05/30 07:21:12;;;;;;;;;0.00;0.00;;;;;23.88;37.62;101874.25;5040971;28;45367;-59
2021/05/30 07:23:38;;;;;;;;;0.00;0.00;;;;;24.08;35.96;101884.50;5040910;28;45363;-62
2021/05/30 07:26:04;;;;;;;;;0.00;0.00;;;;;24.25;35.70;101879.84;5051975;28;45350;-60
2021/05/30 07:28:30;;;;;;;;;0.00;0.00;;;;;24.59;36.42;101886.59;5038196;28;45429;-60
2021/05/30 07:30:55;;;;;;;;;0.00;0.00;;;;;24.79;35.69;101882.31;5061512;28;45407;-60
2021/05/30 07:33:20;;;;;;;;;0.00;0.00;;;;;25.00;34.18;101875.38;5061169;28;45693;-62
2021/05/30 07:35:46;;;;;;;;;0.00;0.00;;;;;24.96;34.80;101870.38;5057221;28;45764;-60
2021/05/30 07:38:11;;;;;;;;;0.00;0.00;;;;;24.85;34.38;101873.53;5043873;28;45335;-59
2021/05/30 07:40:37;;;;;;;;;0.00;0.00;;;;;24.79;34.82;101868.06;5060837;28;45299;-64
2021/05/30 07:43:03;;;;;;;;;0.00;0.00;;;;;24.93;35.03;101867.22;5060927;28;45478;-60
2021/05/30 07:45:29;;;;;;;;;0.00;0.00;;;;;25.37;34.53;101869.84;5056777;28;46981;-60
2021/05/30 07:47:55;;;;;;;;;0.00;0.00;;;;;25.84;33.71;101866.81;5046979;28;45308;-59
2021/05/30 07:50:21;;;;;;;;;0.00;0.00;;;;;26.28;33.53;101869.28;5052423;28;45206;-59
2021/05/30 07:52:47;;;;;;;;;0.00;0.00;;;;;26.73;32.67;101871.69;5055985;28;45525;-59
2021/05/30 07:55:13;;;;;;;;;0.00;0.00;;;;;27.09;31.49;101870.63;5059615;28;46990;-61
2021/05/30 07:57:39;;;;;;;;;0.00;0.00;;;;;27.18;32.02;101867.53;5041414;28;45385;-58
2021/05/30 08:00:08;;;;;;;;;0.00;0.00;;;;;27.41;30.58;101866.41;5039713;28;45891;-58
2021/05/30 08:02:34;;;;;;;;;0.00;0.00;;;;;27.47;30.04;101862.03;5045020;28;45603;-58
2021/05/30 08:04:59;;;;;;;;;0.00;0.00;;;;;27.50;30.74;101864.34;5051138;28;45485;-58
2021/05/30 08:07:25;;;;;;;;;0.00;0.00;;;;;27.56;30.89;101858.09;5060256;28;45326;-60
2021/05/30 08:09:50;;;;;;;;;0.00;0.00;;;;;27.67;29.75;101859.38;5055857;28;45408;-60
2021/05/30 08:12:15;;;;;;;;;0.00;0.00;;;;;27.93;30.57;101864.84;5040165;28;45430;-60
2021/05/30 08:14:42;;;;;;;;;0.00;0.00;;;;;28.30;29.69;101857.13;5041262;28;45636;-60
2021/05/30 08:17:08;;;;;;;;;0.00;0.00;;;;;28.67;29.61;101857.50;5051636;28;45459;-60
2021/05/30 08:19:34;;;;;;;;;0.00;0.00;;;;;28.58;28.61;101865.00;5048935;28;45253;-60
2021/05/30 08:21:59;;;;;;;;;0.00;0.00;;;;;28.34;28.98;101863.78;5042588;28;45438;-59
2021/05/30 08:24:25;;;;;;;;;0.00;0.00;;;;;28.55;29.29;101864.59;5033507;28;46738;-58
2021/05/30 08:26:52;;;;;;;;;0.00;0.00;;;;;29.03;27.78;101869.66;5049445;28;45343;-58
2021/05/30 08:29:18;;;;;;;;;0.00;0.00;;;;;29.38;28.31;101856.59;5047104;28;45398;-59
2021/05/30 08:31:43;;;;;;;;;0.00;0.00;;;;;30.07;27.76;101848.59;5049207;28;45348;-60
2021/05/30 08:34:09;;;;;;;;;0.00;0.00;;;;;30.86;27.50;101855.13;5051120;28;46123;-59
2021/05/30 08:36:34;;;;;;;;;0.00;0.00;;;;;31.80;25.90;101856.53;5047296;28;45746;-59
2021/05/30 08:39:00;;;;;;;;;0.00;0.00;;;;;32.98;25.97;101853.72;5040238;28;45363;-58
2021/05/30 08:41:25;;;;;;;;;0.00;0.00;;;;;34.31;24.23;101845.94;5032463;28;45621;-59
2021/05/30 08:43:50;;;;;;;;;0.00;0.00;;;;;36.06;22.50;101850.50;5042436;28;45420;-60
2021/05/30 08:46:16;;;;;;;;;0.00;0.00;;;;;37.81;21.27;101841.72;5045861;28;45369;-59
2021/05/30 08:48:41;;;;;;;;;0.00;0.00;;;;;39.06;19.05;101844.59;5043716;28;45286;-61
2021/05/30 08:51:11;;;;;;;;;0.00;0.00;;;;;40.14;16.88;101847.25;5042216;28;45442;-60
2021/05/30 08:53:38;;;;;;;;;0.00;0.00;;;;;41.31;17.46;101843.22;5041819;28;46169;-60
2021/05/30 08:56:06;;;;;;;;;0.00;0.00;;;;;42.75;16.48;101842.13;5040149;28;46653;-60
2021/05/30 08:58:38;;;;;;;;;0.00;0.00;;;;;43.80;14.96;101842.88;5042226;28;45418;-60
2021/05/30 09:01:12;;;;;;;;;0.00;0.00;;;;;44.61;12.90;101850.00;5043489;28;45527;-60
2021/05/30 09:04:09;;;;;;;;;0.00;0.00;;;;;44.92;13.58;101847.09;5047349;28;45742;-60
2021/05/30 09:06:39;;;;;;;;;0.00;0.00;;;;;45.58;13.38;101844.06;5048296;28;45319;-61
2021/05/30 09:09:06;;;;;;;;;0.00;0.00;;;;;46.75;12.45;101848.34;5044771;28;45374;-60
2021/05/30 09:11:49;;;;;;;;;0.00;0.00;;;;;47.49;11.62;101837.53;5057099;28;45338;-60
2021/05/30 09:14:23;;;;;;;;;0.00;0.00;;;;;48.24;11.34;101843.63;5041596;28;46148;-60
2021/05/30 09:17:08;;;;;;;;;0.00;0.00;;;;;49.03;11.27;101836.78;5048993;28;45348;-59
2021/05/30 09:19:43;;;;;;;;;0.00;0.00;;;;;49.68;10.56;101844.84;5044721;28;45421;-60
2021/05/30 09:22:31;;;;;;;;;0.00;0.00;;;;;50.24;9.66;101843.81;5056638;28;45526;-60
2021/05/30 09:24:58;;;;;;;;;0.00;0.00;;;;;49.27;9.25;101833.03;5043475;28;46160;-60
2021/05/30 09:27:24;;;;;;;;;0.00;0.00;;;;;48.15;9.61;101845.72;5048763;28;45260;-60
2021/05/30 09:30:11;;;;;;;;;0.00;0.00;;;;;47.34;10.00;101839.00;5044700;28;45442;-60
2021/05/30 09:33:05;;;;;;;;;0.00;0.00;;;;;46.75;10.67;101838.06;5038354;28;45585;-60
2021/05/30 09:35:39;;;;;;;;;0.00;0.00;;;;;45.60;10.63;101840.97;5050014;28;46154;-59
2021/05/30 09:38:07;;;;;;;;;0.00;0.00;;;;;44.16;10.93;101841.91;5039693;28;45251;-60
2021/05/30 09:40:55;;;;;;;;;0.00;0.00;;;;;42.87;11.14;101835.25;5054312;28;45446;-60
2021/05/30 09:43:31;;;;;;;;;0.00;0.00;;;;;42.40;12.97;101836.25;5025606;28;45280;-61
2021/05/30 09:46:16;;;;;;;;;0.00;0.00;;;;;43.29;13.21;101824.88;5039619;28;46558;-60
2021/05/30 09:48:57;;;;;;;;;0.00;0.00;;;;;44.36;12.03;101823.88;5039867;28;45332;-59
2021/05/30 09:51:41;;;;;;;;;0.00;0.00;;;;;45.19;11.94;101823.75;5041706;28;45328;-59
2021/05/30 09:54:16;;;;;;;;;0.00;0.00;;;;;45.74;11.43;101818.56;5050157;28;45514;-59
2021/05/30 09:56:44;;;;;;;;;0.00;0.00;;;;;45.52;11.07;101822.38;5050325;28;46294;-61
2021/05/30 09:59:12;;;;;;;;;0.00;0.00;;;;;44.93;11.01;101812.72;5044287;28;45579;-59
2021/05/30 10:01:59;;;;;;;;;0.00;0.00;;;;;44.36;11.74;101812.78;5048672;28;45347;-60
2021/05/30 10:04:32;;;;;;;;;0.00;0.00;;;;;43.90;12.73;101809.41;5046250;28;45464;-61
2021/05/30 10:06:59;;;;;;;;;0.00;0.00;;;;;43.51;11.94;101813.75;5042112;28;47178;-60
2021/05/30 10:09:26;;;;;;;;;0.00;0.00;;;;;42.98;12.19;101801.56;5037704;28;45256;-59
2021/05/30 10:11:52;;;;;;;;;0.00;0.00;;;;;42.48;13.04;101803.53;5021697;28;45368;-58
2021/05/30 10:14:18;;;;;;;;;0.00;0.00;;;;;42.18;13.08;101794.75;5043940;28;45814;-60
2021/05/30 10:16:43;;;;;;;;;0.00;0.00;;;;;42.51;12.98;101794.59;5045123;28;45353;-60
2021/05/30 10:19:11;;;;;;;;;0.00;0.00;;;;;43.33;13.05;101798.19;5037355;28;45330;-61
2021/05/30 10:21:51;;;;;;;;;0.00;0.00;;;;;44.00;8.83;101795.28;5048873;28;45504;-60
2021/05/30 10:24:18;;;;;;;;;0.00;0.00;;;;;44.02;8.69;101792.16;5040305;28;45394;-60
2021/05/30 10:26:43;;;;;;;;;0.00;0.00;;;;;44.25;10.19;101794.84;5040972;28;46075;-60
2021/05/30 10:29:09;;;;;;;;;0.00;0.00;;;;;44.96;9.39;101797.38;5040295;28;45279;-60
2021/05/30 10:31:36;;;;;;;;;0.00;0.00;;;;;45.29;9.36;101794.06;5041257;28;45340;-59
2021/05/30 10:34:11;;;;;;;;;0.00;0.00;;;;;46.36;9.10;101794.88;5045667;28;45399;-60
2021/05/30 10:36:54;;;;;;;;;0.00;0.00;;;;;46.33;8.45;101798.31;5040592;28;46548;-60
2021/05/30 10:39:29;;;;;;;;;0.00;0.00;;;;;45.64;8.75;101792.81;5052254;28;45434;-60
2021/05/30 10:42:17;;;;;;;;;0.00;0.00;;;;;45.41;8.24;101789.44;5061440;28;45651;-59
2021/05/30 10:45:04;;;;;;;;;0.00;0.00;;;;;44.68;9.51;101796.88;5061632;28;45590;-60
2021/05/30 10:47:42;;;;;;;;;0.00;0.00;;;;;43.92;10.00;101792.47;5059711;28;47052;-60
2021/05/30 10:50:19;;;;;;;;;0.00;0.00;;;;;42.10;11.11;101784.41;5054396;28;45624;-60
2021/05/30 10:52:46;;;;;;;;;0.00;0.00;;;;;40.41;11.19;101785.28;5059473;28;45478;-60
2021/05/30 10:55:18;;;;;;;;;0.00;0.00;;;;;38.99;12.66;101783.69;5056708;28;45471;-60
2021/05/30 10:57:50;;;;;;;;;0.00;0.00;;;;;38.12;12.18;101775.84;5060693;28;46211;-60
2021/05/30 11:00:21;;;;;;;;;0.00;0.00;;;;;37.08;13.54;101770.72;5060649;28;45483;-61
2021/05/30 11:03:02;;;;;;;;;0.00;0.00;;;;;36.11;13.98;101768.47;5058154;28;45409;-60
2021/05/30 11:05:50;;;;;;;;;0.00;0.00;;;;;35.48;15.21;101766.44;5054971;28;45523;-60
2021/05/30 11:08:28;;;;;;;;;0.00;0.00;;;;;35.49;14.92;101748.97;5060153;28;45597;-60
2021/05/30 11:11:16;;;;;;;;;0.00;0.00;;;;;35.25;15.11;101773.09;5053209;28;45550;-60
2021/05/30 11:14:07;;;;;;;;;0.00;0.00;;;;;34.98;15.39;101766.81;5051504;28;45372;-60
2021/05/30 11:16:33;;;;;;;;;0.00;0.00;;;;;34.63;15.23;101763.44;5059221;28;45500;-60
2021/05/30 11:19:10;;;;;;;;;0.00;0.00;;;;;34.23;16.06;101740.03;5060079;28;45366;-60
2021/05/30 11:21:41;;;;;;;;;0.00;0.00;;;;;33.86;15.20;101751.50;5055856;28;45465;-60
2021/05/30 11:24:10;;;;;;;;;0.00;0.00;;;;;33.76;15.78;101740.50;5035074;28;45455;-60
2021/05/30 11:26:36;;;;;;;;;0.00;0.00;;;;;33.43;15.60;101739.41;5047185;28;45470;-60
2021/05/30 11:29:04;;;;;;;;;0.00;0.00;;;;;33.11;15.84;101730.97;5060002;28;46347;-61
2021/05/30 11:31:29;;;;;;;;;0.00;0.00;;;;;32.41;16.75;101737.53;5060697;28;45526;-61